• Join FlightAware (Why Join?)
  • Login
  • US Flag 
08:39PM EDT


 

Airport Tracker/Info


-or-


 

Live Flight TrackerFlight Track Log ✈ DAL872 ✈ 10-May-2013 ✈ KDTW - KMSN

Flight Track Log - Related Links

Times and Time Zones

All times are in EDT time to prevent confusion due to time zone crossing. See the DAL872 flight status page for this flight to view local times or setup timezone preferences in your user account.

Time Position Orientation Groundspeed Altitude Reporting Facility
EDT Latitude Longitude Course Direction KTS MPH feet Rate Location/Type
11:27PM 42.2292 -83.3369 275° West 149 171 1,400  Level Cleveland Center
11:28PM 42.2986 -83.3119 15° North 249 287 4,500 2,580 Climbing Cleveland Center
11:29PM 42.3088 -83.7775 285° West  Level FlightAware Approximate
11:29PM 42.3342 -83.3022 11° North 267 307 6,400  Level Cleveland Center
11:29PM 42.3628 -83.3286 326° Northwest 255 293 8,100 3,660 Climbing Cleveland Center
11:30PM 42.3474 -83.9191 292° West  Level FlightAware Approximate
11:30PM 42.3678 -83.3822 277° West 268 308 10,100  Level Cleveland Center
11:31PM 42.3895 -84.0593 292° West  Level FlightAware Approximate
11:31PM 42.3711 -83.4978 272° West 301 346 11,900  Level Cleveland Center
11:32PM 42.4180 -84.2034 275° West  Level FlightAware Approximate
11:32PM 42.3844 -83.6306 278° West 336 387 14,500  Level Cleveland Center
11:33PM 42.3950 -83.7744 276° West 368 423 17,200 2,640 Climbing Cleveland Center
11:34PM 42.4056 -83.9183 276° West 384 442 19,800 2,400 Climbing Cleveland Center
11:35PM 42.4178 -84.0708 276° West 403 464 22,000 2,100 Climbing Cleveland Center
11:36PM 42.4275 -84.2261 275° West 409 471 24,100 1,980 Climbing Cleveland Center
11:37PM 42.4306 -84.3869 272° West 421 484 26,000 2,040 Climbing Cleveland Center
11:38PM 42.4394 -84.6469 273° West 410 472 29,900 2,040 Climbing Chicago Center
11:39PM 42.4431 -84.7997 272° West 407 468 31,700 1,980 Climbing Chicago Center
11:40PM 42.4506 -84.9794 273° West 402 463 34,000 1,140 Climbing Chicago Center
11:41PM 42.4783 -85.1236 285° West 400 460 34,000  Level Chicago Center
11:42PM 42.5039 -85.2731 283° West 403 464 34,000  Level Chicago Center
11:44PM 42.5308 -85.4225 284° West 407 468 34,000  Level Chicago Center
11:45PM 42.5578 -85.5714 284° West 407 468 34,000  Level Chicago Center
11:46PM 42.5844 -85.7236 283° West 412 474 34,000  Level Chicago Center
11:47PM 42.6097 -85.8742 283° West 410 472 34,000  Level Chicago Center
11:48PM 42.6361 -86.0261 283° West 411 473 34,000  Level Chicago Center
11:49PM 42.6608 -86.1775 283° West 409 471 34,000  Level Chicago Center
11:50PM 42.6872 -86.3286 283° West 408 470 34,000 -120 Level Chicago Center
11:51PM 42.7117 -86.4761 283° West 401 461 33,800 -720 Descending Chicago Center
11:52PM 42.7356 -86.6261 282° West 404 465 32,600 -900 Descending Chicago Center
11:53PM 42.7606 -86.7767 283° West 407 468 32,000 -300 Descending Chicago Center
11:54PM 42.7844 -86.9264 282° West 404 465 32,000  Level Chicago Center
11:55PM 42.8081 -87.0756 282° West 402 463 32,000  Level Chicago Center
11:56PM 42.8342 -87.2244 283° West 404 465 32,000  Level Chicago Center
11:57PM 42.8608 -87.3994 282° West 409 471 32,000  Level Chicago Center
11:58PM 42.8850 -87.5503 282° West 408 470 32,000 -1,320 Level Chicago Center
11:59PM 42.9089 -87.7025 282° West 408 470 29,400 -3,360 Descending Chicago Center
12:00AM 42.9342 -87.8592 282° West 418 481 25,200 -3,420 Descending Chicago Center
12:01AM 42.9586 -88.0225 282° West 432 497 22,500 -2,760 Descending Chicago Center
12:02AM 42.9817 -88.1736 282° West 407 468 19,600 -2,820 Descending Chicago Center
12:03AM 43.0039 -88.3178 282° West 388 447 16,900 -2,640 Descending Chicago Center
12:04AM 43.0242 -88.4553 281° West 370 426 14,300 -1,740 Descending Chicago Center
12:05AM 43.0431 -88.5861 281° West 352 405 13,400 -840 Descending Chicago Center
12:06AM 43.0608 -88.7058 282° West 323 372 12,700 -1,080 Descending Chicago Center
12:07AM 43.0769 -88.8153 281° West 296 341 11,300 -1,680 Descending Chicago Center
12:08AM 43.0919 -88.9197 281° West 283 326 9,300 -2,040 Descending Chicago Center
12:09AM 43.1228 -89.0106 295° West 263 303 7,200 -2,460 Descending Chicago Center
12:10AM 43.1625 -89.0908 304° West 257 296 4,400 -2,100 Descending Chicago Center
12:11AM 43.2019 -89.1689 305° West 253 291 3,000 -900 Descending Chicago Center
12:12AM 43.2275 -89.2267 301° West 204 235 2,700 -240 Descending Chicago Center
12:13AM 43.2353 -89.2831 281° West 170 196 2,600 -120 Descending Chicago Center